Nan, Thailand
Current Conditions -  °F | °C
As of 4:00 PM on Saturday 25 Oct 2014 (Local Time) from VTCT Reporting Station
Scattered Clouds Scattered Clouds  
Wind Chill: 88°   Ceiling: Unl
Heat Index: 90°   Visibility: 6mi
Dew Point: 66°   Wind: 3mph
Humidity: 49%   Direction: 10°N
Pressure: 29.88"   Gusts: NA
Location:  18.78°N, 100.77°E
Report Text: VTCT 250900Z 01003KT 9999 SCT022 31/19 Q1012 A2989RMK/RWY03 INFO J
Loading
Personal Weather Stations






























Interactive Weather Map
Tropical Storm Tracking
New forecast layout! Learn more

10-Day Weather Forecast

Advertisements
Track Severe Weather on mobile